Time;durP1;ratioP1;P1;durP2;ratioP2;P2;SDS_P1;SDS_P2;PMS_P1;PMS_P2;Temp;Humidity;BMP_temperature;BMP_pressure;BME280_temperature;BME280_humidity;BME280_pressure;Samples;Min_cycle;Max_cycle;Signal;HPM_P1;HPM_P2
2023/12/21 00:01:17;;;;;;;4.55;3.65;;;;;;;;;;5023576;28;20459;-71
2023/12/21 00:03:44;;;;;;;5.43;3.92;;;;;;;;;;5021811;28;20415;-71
2023/12/21 00:06:12;;;;;;;4.40;3.50;;;;;;;;;;5022648;28;20466;-71
2023/12/21 00:08:40;;;;;;;3.90;3.50;;;;;;;;;;5019587;28;20416;-71
2023/12/21 00:11:07;;;;;;;4.15;3.35;;;;;;;;;;5031475;28;20658;-71
2023/12/21 00:13:34;;;;;;;3.50;3.20;;;;;;;;;;5021925;28;20432;-71
2023/12/21 00:16:01;;;;;;;3.38;2.80;;;;;;;;;;5024376;28;20751;-71
2023/12/21 00:18:28;;;;;;;3.53;3.22;;;;;;;;;;5027385;28;20852;-71
2023/12/21 00:20:55;;;;;;;3.10;2.80;;;;;;;;;;5024053;28;20418;-70
2023/12/21 00:23:23;;;;;;;3.37;2.90;;;;;;;;;;5009653;28;20927;-71
2023/12/21 00:25:50;;;;;;;3.08;2.78;;;;;;;;;;5032579;28;20893;-71
2023/12/21 00:28:18;;;;;;;3.95;2.60;;;;;;;;;;5019276;28;20898;-71
2023/12/21 00:30:45;;;;;;;2.78;2.47;;;;;;;;;;5034084;28;20417;-71
2023/12/21 00:33:12;;;;;;;2.90;2.60;;;;;;;;;;5029903;28;20434;-71
2023/12/21 00:35:39;;;;;;;2.78;2.40;;;;;;;;;;5033021;28;20788;-71
2023/12/21 00:38:06;;;;;;;2.60;2.40;;;;;;;;;;5035052;28;20419;-71
2023/12/21 00:40:34;;;;;;;2.65;1.98;;;;;;;;;;5026250;28;20435;-71
2023/12/21 00:43:01;;;;;;;1.80;1.55;;;;;;;;;;5020935;28;20528;-71
2023/12/21 00:45:29;;;;;;;2.20;1.70;;;;;;;;;;5027590;28;20860;-71
2023/12/21 00:47:56;;;;;;;2.10;1.90;;;;;;;;;;5025171;28;20431;-71
2023/12/21 00:50:23;;;;;;;2.17;1.90;;;;;;;;;;5030494;28;20413;-71
2023/12/21 00:52:50;;;;;;;2.70;2.00;;;;;;;;;;5023182;28;20468;-71
2023/12/21 00:55:17;;;;;;;2.72;1.60;;;;;;;;;;5026456;28;20443;-71
2023/12/21 00:57:46;;;;;;;2.88;1.83;;;;;;;;;;5037824;28;20447;-71
2023/12/21 01:00:13;;;;;;;2.20;1.80;;;;;;;;;;5019246;28;20509;-71
2023/12/21 01:02:40;;;;;;;3.40;2.10;;;;;;;;;;5023448;28;20483;-71
2023/12/21 01:05:08;;;;;;;2.60;2.20;;;;;;;;;;5030877;28;20454;-71
2023/12/21 01:07:35;;;;;;;3.47;2.40;;;;;;;;;;5029023;28;20420;-71
2023/12/21 01:10:02;;;;;;;2.85;2.55;;;;;;;;;;5017189;28;20434;-72
2023/12/21 01:12:31;;;;;;;2.88;2.53;;;;;;;;;;5039643;28;20435;-71
2023/12/21 01:15:00;;;;;;;2.80;2.45;;;;;;;;;;5027544;28;20415;-71
2023/12/21 01:17:27;;;;;;;3.50;2.60;;;;;;;;;;5025700;28;20547;-71
2023/12/21 01:19:54;;;;;;;3.47;2.65;;;;;;;;;;5018028;28;20488;-71
2023/12/21 01:22:21;;;;;;;3.17;2.40;;;;;;;;;;5038667;28;20430;-71
2023/12/21 01:24:48;;;;;;;3.22;2.67;;;;;;;;;;5035614;28;20419;-71
2023/12/21 01:27:15;;;;;;;2.90;2.60;;;;;;;;;;5038718;28;20411;-71
2023/12/21 01:29:42;;;;;;;3.57;2.50;;;;;;;;;;5032433;28;20796;-71
2023/12/21 01:32:11;;;;;;;3.30;2.60;;;;;;;;;;5032989;28;20413;-71
2023/12/21 01:34:38;;;;;;;3.55;2.90;;;;;;;;;;5032763;28;20439;-71
2023/12/21 01:37:05;;;;;;;3.50;3.20;;;;;;;;;;5035003;28;20415;-71
2023/12/21 01:39:32;;;;;;;5.13;3.28;;;;;;;;;;5042683;28;20413;-71
2023/12/21 01:41:59;;;;;;;3.22;2.80;;;;;;;;;;5026668;28;20452;-71
2023/12/21 01:44:27;;;;;;;3.30;3.00;;;;;;;;;;5031220;28;20467;-70
2023/12/21 01:46:54;;;;;;;3.70;3.20;;;;;;;;;;5023621;28;20421;-71
2023/12/21 01:49:23;;;;;;;4.25;3.20;;;;;;;;;;5018730;28;20444;-71
2023/12/21 01:51:50;;;;;;;3.90;3.10;;;;;;;;;;5027962;28;20430;-71
2023/12/21 01:54:18;;;;;;;3.60;3.00;;;;;;;;;;5042292;28;20409;-71
2023/12/21 01:56:46;;;;;;;5.90;2.70;;;;;;;;;;5034278;28;20433;-71
2023/12/21 01:59:13;;;;;;;3.83;3.10;;;;;;;;;;5011783;28;21054;-71
2023/12/21 02:01:40;;;;;;;3.03;2.72;;;;;;;;;;5038897;28;20853;-71
2023/12/21 02:04:07;;;;;;;3.73;3.33;;;;;;;;;;5041230;28;20463;-71
2023/12/21 02:06:37;;;;;;;4.60;3.70;;;;;;;;;;5025127;28;20532;-70
2023/12/21 02:09:04;;;;;;;4.15;3.50;;;;;;;;;;5040091;28;20704;-71
2023/12/21 02:11:31;;;;;;;4.70;3.80;;;;;;;;;;5032931;28;20532;-71
2023/12/21 02:13:58;;;;;;;3.67;3.38;;;;;;;;;;5036846;28;20501;-71
2023/12/21 02:16:27;;;;;;;3.50;3.00;;;;;;;;;;5035781;28;20409;-71
2023/12/21 02:18:55;;;;;;;3.42;2.92;;;;;;;;;;5037970;28;20420;-70
2023/12/21 02:21:23;;;;;;;6.10;3.50;;;;;;;;;;5035520;28;20421;-71
2023/12/21 02:23:52;;;;;;;2.60;2.40;;;;;;;;;;5034466;28;20723;-71
2023/12/21 02:26:20;;;;;;;2.90;2.60;;;;;;;;;;5034106;28;20972;-71
2023/12/21 02:28:47;;;;;;;2.60;2.40;;;;;;;;;;5028579;28;20420;-71
2023/12/21 02:31:14;;;;;;;3.47;2.55;;;;;;;;;;5026893;28;20425;-71
2023/12/21 02:33:41;;;;;;;3.10;2.55;;;;;;;;;;5033138;28;20431;-71
2023/12/21 02:36:08;;;;;;;2.70;2.50;;;;;;;;;;5029665;28;22028;-71
2023/12/21 02:38:35;;;;;;;2.75;2.55;;;;;;;;;;5032836;28;20741;-71
2023/12/21 02:41:02;;;;;;;3.25;2.90;;;;;;;;;;5037655;28;20413;-71
2023/12/21 02:43:31;;;;;;;3.30;2.38;;;;;;;;;;5030071;28;20431;-71
2023/12/21 02:45:58;;;;;;;2.95;2.60;;;;;;;;;;5031054;28;20429;-71
2023/12/21 02:48:25;;;;;;;3.53;2.50;;;;;;;;;;5020844;28;20436;-71
2023/12/21 02:50:52;;;;;;;3.40;2.88;;;;;;;;;;5028665;28;20945;-71
2023/12/21 02:53:19;;;;;;;3.60;3.00;;;;;;;;;;5025888;28;20413;-71
2023/12/21 02:55:46;;;;;;;3.58;2.90;;;;;;;;;;5041217;28;20413;-71
2023/12/21 02:58:13;;;;;;;4.10;2.85;;;;;;;;;;5024023;28;20442;-71
2023/12/21 03:00:42;;;;;;;3.63;2.90;;;;;;;;;;5017469;28;20484;-71
2023/12/21 03:03:09;;;;;;;4.60;3.00;;;;;;;;;;5021828;28;20730;-71
2023/12/21 03:05:36;;;;;;;3.00;2.70;;;;;;;;;;5030168;28;20805;-71
2023/12/21 03:08:03;;;;;;;4.25;3.25;;;;;;;;;;5028410;28;20920;-71
2023/12/21 03:10:30;;;;;;;3.22;2.92;;;;;;;;;;5038236;28;20421;-71
2023/12/21 03:12:57;;;;;;;3.40;3.10;;;;;;;;;;5030943;28;20427;-71
2023/12/21 03:15:24;;;;;;;3.75;3.45;;;;;;;;;;5020707;28;20419;-71
2023/12/21 03:17:54;;;;;;;5.72;3.80;;;;;;;;;;5032442;28;20424;-71
2023/12/21 03:20:21;;;;;;;4.53;3.88;;;;;;;;;;5034405;28;20421;-71
2023/12/21 03:22:48;;;;;;;5.13;3.97;;;;;;;;;;5025430;28;21072;-71
2023/12/21 03:25:15;;;;;;;4.70;3.87;;;;;;;;;;5028950;28;20490;-70
2023/12/21 03:27:42;;;;;;;4.00;3.60;;;;;;;;;;5027437;28;20411;-71
2023/12/21 03:30:10;;;;;;;3.80;3.50;;;;;;;;;;5037716;28;20423;-71
2023/12/21 03:32:38;;;;;;;4.40;3.75;;;;;;;;;;5030522;28;20512;-70
2023/12/21 03:35:07;;;;;;;4.07;3.58;;;;;;;;;;5021384;28;20540;-71
2023/12/21 03:37:34;;;;;;;4.28;3.63;;;;;;;;;;5051217;22;20460;-72
2023/12/21 03:40:01;;;;;;;4.00;3.40;;;;;;;;;;5041897;28;20466;-72
2023/12/21 03:42:28;;;;;;;4.20;3.40;;;;;;;;;;5044548;28;20432;-72
2023/12/21 03:44:55;;;;;;;4.35;3.30;;;;;;;;;;5045793;28;20417;-71
2023/12/21 03:47:22;;;;;;;3.78;3.25;;;;;;;;;;5046938;28;20424;-73
2023/12/21 03:49:49;;;;;;;3.60;3.30;;;;;;;;;;5045391;28;20436;-74
2023/12/21 03:52:18;;;;;;;4.40;2.92;;;;;;;;;;5038768;28;20409;-72
2023/12/21 03:54:45;;;;;;;4.22;3.08;;;;;;;;;;5047049;28;20409;-71
2023/12/21 03:57:12;;;;;;;3.50;2.85;;;;;;;;;;5045580;28;20421;-72
2023/12/21 03:59:39;;;;;;;5.90;2.70;;;;;;;;;;5046050;28;20417;-71
2023/12/21 04:02:06;;;;;;;4.18;2.85;;;;;;;;;;5043021;28;20431;-72
2023/12/21 04:04:33;;;;;;;3.00;2.65;;;;;;;;;;5046282;28;20429;-71
2023/12/21 04:07:00;;;;;;;2.95;2.40;;;;;;;;;;5045468;28;20405;-73
2023/12/21 04:09:29;;;;;;;3.83;2.58;;;;;;;;;;5046064;28;20451;-72
2023/12/21 04:11:56;;;;;;;2.80;2.30;;;;;;;;;;5045566;28;20437;-72
2023/12/21 04:14:23;;;;;;;3.15;2.20;;;;;;;;;;5045198;28;20521;-71
2023/12/21 04:16:50;;;;;;;2.80;2.10;;;;;;;;;;5042820;28;20429;-71
2023/12/21 04:19:18;;;;;;;2.47;2.10;;;;;;;;;;5038121;28;20413;-72
2023/12/21 04:21:44;;;;;;;3.40;2.50;;;;;;;;;;5047340;28;20495;-72
2023/12/21 04:24:11;;;;;;;2.63;2.10;;;;;;;;;;5049865;28;20433;-71
2023/12/21 04:26:40;;;;;;;3.45;2.10;;;;;;;;;;5049021;28;20429;-71
2023/12/21 04:29:07;;;;;;;3.83;2.40;;;;;;;;;;5050159;28;20425;-71
2023/12/21 04:31:34;;;;;;;2.22;2.03;;;;;;;;;;5048567;28;20515;-71
2023/12/21 04:34:01;;;;;;;3.05;2.10;;;;;;;;;;5048377;28;20417;-71
2023/12/21 04:36:28;;;;;;;2.80;2.20;;;;;;;;;;5049079;28;20417;-71
2023/12/21 04:38:56;;;;;;;3.85;2.55;;;;;;;;;;5049225;28;20413;-71
2023/12/21 04:41:23;;;;;;;2.50;2.20;;;;;;;;;;5050139;28;20429;-71
2023/12/21 04:43:52;;;;;;;3.88;2.20;;;;;;;;;;5050156;28;20444;-72
2023/12/21 04:46:19;;;;;;;3.08;2.30;;;;;;;;;;5041682;28;20504;-71
2023/12/21 04:48:46;;;;;;;3.10;2.53;;;;;;;;;;5050338;28;20417;-71
2023/12/21 04:51:15;;;;;;;3.80;2.30;;;;;;;;;;5047896;28;20433;-71
2023/12/21 04:53:42;;;;;;;3.90;2.60;;;;;;;;;;5050341;28;20950;-72
2023/12/21 04:56:10;;;;;;;2.90;2.45;;;;;;;;;;5048097;28;20515;-72
2023/12/21 04:58:37;;;;;;;2.55;2.25;;;;;;;;;;5049906;28;20903;-72
2023/12/21 05:01:07;;;;;;;2.40;2.10;;;;;;;;;;5047533;28;20433;-71
2023/12/21 05:03:34;;;;;;;3.10;2.63;;;;;;;;;;5043847;28;20429;-70
2023/12/21 05:06:01;;;;;;;3.65;2.50;;;;;;;;;;5047502;28;20871;-71
2023/12/21 05:08:29;;;;;;;2.90;2.50;;;;;;;;;;5049711;28;20409;-71
2023/12/21 05:10:57;;;;;;;3.03;2.72;;;;;;;;;;5048704;28;20440;-71
2023/12/21 05:13:24;;;;;;;2.80;2.50;;;;;;;;;;5049479;28;20409;-72
2023/12/21 05:15:51;;;;;;;3.80;2.53;;;;;;;;;;5048744;28;20509;-71
2023/12/21 05:18:19;;;;;;;3.08;2.60;;;;;;;;;;5041089;28;20424;-74
2023/12/21 05:20:46;;;;;;;4.03;3.00;;;;;;;;;;5048581;28;20409;-71
2023/12/21 05:23:13;;;;;;;4.57;2.50;;;;;;;;;;5048296;28;20424;-71
2023/12/21 05:25:40;;;;;;;4.25;3.00;;;;;;;;;;5048951;28;20433;-71
2023/12/21 05:28:07;;;;;;;3.63;3.10;;;;;;;;;;5048435;28;20532;-71
2023/12/21 05:30:34;;;;;;;3.70;3.20;;;;;;;;;;5048508;28;20417;-71
2023/12/21 05:33:02;;;;;;;3.00;2.40;;;;;;;;;;5048655;28;20409;-71
2023/12/21 05:35:31;;;;;;;3.72;3.03;;;;;;;;;;5049036;28;20417;-71
2023/12/21 05:37:58;;;;;;;3.80;3.20;;;;;;;;;;5047897;28;20636;-71
2023/12/21 05:40:25;;;;;;;3.37;2.90;;;;;;;;;;5047980;28;20429;-72
2023/12/21 05:42:53;;;;;;;3.95;3.00;;;;;;;;;;5047884;28;20413;-72
2023/12/21 05:45:20;;;;;;;6.70;3.50;;;;;;;;;;5048063;28;20464;-71
2023/12/21 05:47:47;;;;;;;5.00;3.30;;;;;;;;;;5047848;28;20891;-71
2023/12/21 05:50:14;;;;;;;4.20;3.20;;;;;;;;;;5048500;28;20413;-71
2023/12/21 05:52:43;;;;;;;6.40;3.10;;;;;;;;;;5049070;28;20410;-71
2023/12/21 05:55:15;;;;;;;6.70;3.42;;;;;;;;;;5048408;28;20430;-71
2023/12/21 05:57:42;;;;;;;5.80;3.30;;;;;;;;;;5045726;28;20698;-70
2023/12/21 06:00:09;;;;;;;5.60;3.83;;;;;;;;;;5046783;28;20437;-71
2023/12/21 06:02:36;;;;;;;6.60;3.75;;;;;;;;;;5047602;28;20424;-71
2023/12/21 06:05:03;;;;;;;8.43;3.63;;;;;;;;;;5048549;28;20800;-71
2023/12/21 06:07:30;;;;;;;6.53;3.60;;;;;;;;;;5047202;28;20598;-71
2023/12/21 06:09:59;;;;;;;7.00;3.80;;;;;;;;;;5047699;28;20927;-71
2023/12/21 06:12:26;;;;;;;5.95;3.90;;;;;;;;;;5047734;28;20796;-72
2023/12/21 06:14:53;;;;;;;5.43;3.70;;;;;;;;;;5047862;28;20417;-71
2023/12/21 06:17:20;;;;;;;5.80;3.83;;;;;;;;;;5039547;28;20896;-64
2023/12/21 06:19:47;;;;;;;6.05;3.70;;;;;;;;;;5046853;28;20416;-65
2023/12/21 06:22:16;;;;;;;6.37;3.70;;;;;;;;;;5047069;28;20515;-72
2023/12/21 06:24:43;;;;;;;4.72;3.45;;;;;;;;;;5047643;28;20436;-73
2023/12/21 06:27:11;;;;;;;5.10;3.55;;;;;;;;;;5047264;28;20421;-74
2023/12/21 06:29:38;;;;;;;5.53;3.40;;;;;;;;;;5047821;28;20409;-72
2023/12/21 06:32:06;;;;;;;4.78;3.03;;;;;;;;;;5048146;28;20463;-72
2023/12/21 06:34:33;;;;;;;5.43;3.28;;;;;;;;;;5041334;28;20437;-71
2023/12/21 06:37:03;;;;;;;5.60;3.70;;;;;;;;;;5046061;28;20424;-71
2023/12/21 06:39:31;;;;;;;5.00;2.90;;;;;;;;;;5047487;28;20894;-71
2023/12/21 06:41:58;;;;;;;3.22;2.70;;;;;;;;;;5041407;28;20415;-72
2023/12/21 06:44:26;;;;;;;6.10;3.10;;;;;;;;;;5046686;28;20429;-72
2023/12/21 06:46:53;;;;;;;5.18;3.22;;;;;;;;;;5046652;28;20426;-71
2023/12/21 06:49:20;;;;;;;3.83;2.88;;;;;;;;;;5043874;28;20447;-71
2023/12/21 06:51:47;;;;;;;5.68;3.28;;;;;;;;;;5047825;28;20418;-72
2023/12/21 06:54:14;;;;;;;5.43;3.10;;;;;;;;;;5047379;28;20417;-71
2023/12/21 06:56:42;;;;;;;5.65;3.80;;;;;;;;;;5045701;28;20936;-72
2023/12/21 06:59:09;;;;;;;5.30;3.00;;;;;;;;;;5046722;28;20409;-72
2023/12/21 07:01:37;;;;;;;6.90;3.10;;;;;;;;;;5045467;28;20800;-76
2023/12/21 07:04:04;;;;;;;4.72;3.20;;;;;;;;;;5043616;28;20434;-70
2023/12/21 07:06:31;;;;;;;6.47;3.15;;;;;;;;;;5041721;28;20445;-70
2023/12/21 07:08:58;;;;;;;6.32;3.22;;;;;;;;;;5047380;28;20417;-70
2023/12/21 07:11:25;;;;;;;6.85;3.90;;;;;;;;;;5047346;28;20429;-71
2023/12/21 07:13:52;;;;;;;7.10;3.85;;;;;;;;;;5046526;28;20401;-71
2023/12/21 07:16:20;;;;;;;5.10;3.70;;;;;;;;;;5046032;28;20907;-72
2023/12/21 07:18:48;;;;;;;6.13;3.60;;;;;;;;;;5046096;28;20432;-71
2023/12/21 07:21:15;;;;;;;7.40;3.67;;;;;;;;;;5040360;28;20464;-71
2023/12/21 07:23:42;;;;;;;6.60;3.67;;;;;;;;;;5042702;28;20433;-70
2023/12/21 07:26:10;;;;;;;11.68;4.53;;;;;;;;;;5045759;28;20468;-70
2023/12/21 07:28:37;;;;;;;7.70;3.70;;;;;;;;;;5046330;28;20678;-71
2023/12/21 07:31:05;;;;;;;6.95;3.70;;;;;;;;;;5044808;28;20911;-71
2023/12/21 07:33:32;;;;;;;6.97;3.35;;;;;;;;;;5046026;28;20571;-71
2023/12/21 07:36:02;;;;;;;10.43;4.00;;;;;;;;;;5044374;28;20481;-71
2023/12/21 07:38:29;;;;;;;7.80;3.40;;;;;;;;;;5044262;28;20461;-72
2023/12/21 07:40:56;;;;;;;6.22;3.78;;;;;;;;;;5046292;28;20927;-71
2023/12/21 07:43:23;;;;;;;7.80;3.90;;;;;;;;;;5042811;28;20418;-71
2023/12/21 07:45:52;;;;;;;10.00;4.10;;;;;;;;;;5046067;28;20710;-71
2023/12/21 07:48:19;;;;;;;6.00;3.78;;;;;;;;;;5046687;28;20483;-70
2023/12/21 07:50:46;;;;;;;7.43;3.60;;;;;;;;;;5048845;28;20421;-71
2023/12/21 07:53:14;;;;;;;12.23;4.57;;;;;;;;;;5045641;28;20440;-71
2023/12/21 07:55:42;;;;;;;8.07;3.63;;;;;;;;;;5047392;28;20896;-71
2023/12/21 07:58:09;;;;;;;8.10;3.75;;;;;;;;;;5045176;28;21058;-71
2023/12/21 08:00:36;;;;;;;9.63;4.10;;;;;;;;;;5045562;28;20409;-71
2023/12/21 08:03:03;;;;;;;6.80;3.60;;;;;;;;;;5044762;28;20417;-72
2023/12/21 08:05:30;;;;;;;8.18;3.70;;;;;;;;;;5046801;28;20440;-69
2023/12/21 08:07:57;;;;;;;7.70;3.65;;;;;;;;;;5044650;28;20440;-70
2023/12/21 08:10:25;;;;;;;6.20;3.60;;;;;;;;;;5047017;28;20416;-70
2023/12/21 08:12:52;;;;;;;6.78;3.80;;;;;;;;;;5044649;28;20426;-71
2023/12/21 08:15:19;;;;;;;14.02;4.60;;;;;;;;;;5045764;28;20436;-71
2023/12/21 08:17:51;;;;;;;9.68;3.30;;;;;;;;;;5045520;28;20448;-71
2023/12/21 08:20:18;;;;;;;7.63;3.40;;;;;;;;;;5044548;28;20919;-71
2023/12/21 08:22:45;;;;;;;9.38;3.38;;;;;;;;;;5045513;28;20414;-70
2023/12/21 08:25:12;;;;;;;5.70;3.15;;;;;;;;;;5044223;28;20931;-72
2023/12/21 08:27:41;;;;;;;7.05;3.38;;;;;;;;;;5045129;28;20417;-71
2023/12/21 08:30:08;;;;;;;4.80;2.67;;;;;;;;;;5045498;28;20455;-71
2023/12/21 08:32:35;;;;;;;5.22;3.17;;;;;;;;;;5046281;28;20428;-71
2023/12/21 08:35:04;;;;;;;7.10;2.80;;;;;;;;;;5043711;28;20405;-72
2023/12/21 08:37:31;;;;;;;4.07;2.60;;;;;;;;;;5044763;28;20517;-71
2023/12/21 08:39:58;;;;;;;8.13;3.28;;;;;;;;;;5042234;28;20416;-71
2023/12/21 08:42:26;;;;;;;7.57;3.20;;;;;;;;;;5040513;28;20414;-72
2023/12/21 08:44:55;;;;;;;5.57;3.30;;;;;;;;;;5045426;28;21206;-72
2023/12/21 08:47:22;;;;;;;7.60;3.25;;;;;;;;;;5044191;28;20413;-72
2023/12/21 08:49:49;;;;;;;5.15;3.00;;;;;;;;;;5045915;28;20417;-71
2023/12/21 08:52:16;;;;;;;6.15;2.85;;;;;;;;;;5044967;28;20441;-71
2023/12/21 08:54:43;;;;;;;7.80;2.50;;;;;;;;;;5045703;28;20433;-71
2023/12/21 08:57:11;;;;;;;5.55;3.00;;;;;;;;;;5041405;28;20425;-71
2023/12/21 08:59:38;;;;;;;7.00;2.92;;;;;;;;;;5045188;28;20413;-70
2023/12/21 09:02:07;;;;;;;5.10;2.65;;;;;;;;;;5043665;28;20814;-70
2023/12/21 09:04:34;;;;;;;8.02;3.63;;;;;;;;;;5045124;28;20661;-70
2023/12/21 09:07:01;;;;;;;6.00;2.90;;;;;;;;;;5042599;28;20441;-70
2023/12/21 09:09:29;;;;;;;5.90;2.70;;;;;;;;;;5048551;28;20529;-71
2023/12/21 09:11:56;;;;;;;6.75;3.30;;;;;;;;;;5049263;28;20453;-71
2023/12/21 09:14:24;;;;;;;6.53;3.10;;;;;;;;;;5048642;28;20417;-70
2023/12/21 09:16:51;;;;;;;6.33;3.50;;;;;;;;;;5048654;28;20421;-71
2023/12/21 09:19:20;;;;;;;5.65;3.00;;;;;;;;;;5047910;28;20524;-70
2023/12/21 09:21:47;;;;;;;7.10;3.55;;;;;;;;;;5048517;28;21124;-70
2023/12/21 09:24:14;;;;;;;8.30;4.15;;;;;;;;;;5049319;28;20421;-70
2023/12/21 09:26:41;;;;;;;6.40;3.17;;;;;;;;;;5047849;28;20440;-70
2023/12/21 09:29:08;;;;;;;6.38;3.70;;;;;;;;;;5041992;28;20409;-70
2023/12/21 09:31:35;;;;;;;9.50;4.10;;;;;;;;;;5048642;28;20424;-70
2023/12/21 09:34:04;;;;;;;7.10;4.20;;;;;;;;;;5049314;28;20420;-70
2023/12/21 09:36:32;;;;;;;4.00;2.97;;;;;;;;;;5046998;28;20506;-72
2023/12/21 09:38:59;;;;;;;6.00;3.20;;;;;;;;;;5046585;28;20433;-76
2023/12/21 09:41:26;;;;;;;6.20;3.55;;;;;;;;;;5047289;28;20445;-75
2023/12/21 09:43:54;;;;;;;5.93;3.55;;;;;;;;;;5044822;28;20410;-72
2023/12/21 09:46:23;;;;;;;5.05;3.38;;;;;;;;;;5047753;28;20456;-73
2023/12/21 09:48:51;;;;;;;5.60;3.10;;;;;;;;;;5049165;28;20427;-72
2023/12/21 09:51:18;;;;;;;5.68;3.45;;;;;;;;;;5046603;28;20449;-73
2023/12/21 09:53:47;;;;;;;3.55;3.00;;;;;;;;;;5047938;28;20413;-67
2023/12/21 09:56:15;;;;;;;6.18;3.20;;;;;;;;;;5047287;28;21254;-71
2023/12/21 09:58:43;;;;;;;4.60;3.30;;;;;;;;;;5046893;28;20459;-71
2023/12/21 10:01:10;;;;;;;4.15;2.63;;;;;;;;;;5044394;28;20429;-72
2023/12/21 10:03:37;;;;;;;4.63;3.28;;;;;;;;;;5048357;28;20413;-71
2023/12/21 10:06:04;;;;;;;3.80;2.80;;;;;;;;;;5045810;28;20440;-63
2023/12/21 10:08:33;;;;;;;4.53;2.90;;;;;;;;;;5047092;28;20907;-71
2023/12/21 10:11:03;;;;;;;3.42;2.50;;;;;;;;;;5046588;28;20468;-71
2023/12/21 10:13:30;;;;;;;3.50;2.47;;;;;;;;;;5046638;28;20498;-71
2023/12/21 10:16:03;;;;;;;2.88;2.13;;;;;;;;;;5046462;28;20456;-70
2023/12/21 10:18:30;;;;;;;3.83;2.20;;;;;;;;;;5047190;28;20496;-71
2023/12/21 10:20:57;;;;;;;3.00;1.90;;;;;;;;;;5046565;28;20839;-71
2023/12/21 10:23:25;;;;;;;2.90;1.70;;;;;;;;;;5039078;28;20560;-72
2023/12/21 10:25:53;;;;;;;2.70;1.58;;;;;;;;;;5045318;28;20943;-71
2023/12/21 10:28:24;;;;;;;3.05;1.60;;;;;;;;;;5046914;28;20420;-71
2023/12/21 10:30:53;;;;;;;3.22;1.50;;;;;;;;;;5047097;28;20433;-72
2023/12/21 10:33:20;;;;;;;1.80;1.30;;;;;;;;;;5048427;28;20501;-72
2023/12/21 10:35:48;;;;;;;1.30;1.13;;;;;;;;;;5047340;28;20413;-72
2023/12/21 10:38:16;;;;;;;1.80;1.30;;;;;;;;;;5047301;28;20413;-73
2023/12/21 10:40:45;;;;;;;1.95;1.30;;;;;;;;;;5047468;28;20430;-71
2023/12/21 10:43:13;;;;;;;2.50;1.40;;;;;;;;;;5042091;28;20414;-71
2023/12/21 10:45:43;;;;;;;3.63;1.30;;;;;;;;;;5047316;28;20471;-70
2023/12/21 10:48:13;;;;;;;2.30;1.30;;;;;;;;;;5047466;28;20426;-71
2023/12/21 10:50:41;;;;;;;1.75;1.35;;;;;;;;;;5047772;28;20417;-70
2023/12/21 10:53:09;;;;;;;1.55;1.10;;;;;;;;;;5048001;28;20957;-71
2023/12/21 10:55:37;;;;;;;1.60;1.20;;;;;;;;;;5047407;28;20457;-71
2023/12/21 10:58:06;;;;;;;3.50;1.70;;;;;;;;;;5059949;22;20442;-72
2023/12/21 11:00:33;;;;;;;1.60;1.30;;;;;;;;;;5014967;28;20549;-72
2023/12/21 11:03:06;;;;;;;3.60;2.10;;;;;;;;;;5012825;28;22379;-71
2023/12/21 11:05:34;;;;;;;3.00;1.92;;;;;;;;;;5022194;28;20534;-71
2023/12/21 11:08:01;;;;;;;3.10;2.20;;;;;;;;;;5020688;28;20507;-71
2023/12/21 11:10:29;;;;;;;2.63;2.10;;;;;;;;;;5010233;28;20413;-71
2023/12/21 11:12:56;;;;;;;2.28;1.80;;;;;;;;;;5006679;28;20690;-71
2023/12/21 11:15:23;;;;;;;3.10;2.10;;;;;;;;;;5005681;28;20435;-71
2023/12/21 11:17:52;;;;;;;3.60;2.10;;;;;;;;;;5020698;28;20554;-72
2023/12/21 11:20:23;;;;;;;6.60;2.70;;;;;;;;;;5011868;28;20424;-71
2023/12/21 11:22:51;;;;;;;5.25;2.60;;;;;;;;;;5013849;28;20432;-71
2023/12/21 11:25:22;;;;;;;4.60;2.95;;;;;;;;;;5004785;28;20741;-71
2023/12/21 11:27:50;;;;;;;4.47;3.10;;;;;;;;;;5022495;28;20579;-72
2023/12/21 11:30:18;;;;;;;3.17;2.88;;;;;;;;;;5002943;28;20440;-71
2023/12/21 11:32:46;;;;;;;5.40;3.30;;;;;;;;;;5015984;28;20508;-71
2023/12/21 11:35:21;;;;;;;3.70;3.40;;;;;;;;;;5020374;28;20759;-71
2023/12/21 11:37:51;;;;;;;5.95;3.30;;;;;;;;;;5006097;28;21066;-71
2023/12/21 11:40:19;;;;;;;4.72;3.60;;;;;;;;;;5016273;28;20415;-71
2023/12/21 11:42:47;;;;;;;6.53;3.80;;;;;;;;;;5008720;28;20843;-71
2023/12/21 11:45:21;;;;;;;5.10;3.30;;;;;;;;;;5014043;28;20519;-71
2023/12/21 11:47:48;;;;;;;6.30;3.90;;;;;;;;;;5003423;28;20859;-72
2023/12/21 11:50:19;;;;;;;4.15;3.63;;;;;;;;;;5019426;28;20421;-71
2023/12/21 11:52:48;;;;;;;6.10;3.70;;;;;;;;;;5012587;28;20468;-71
2023/12/21 11:55:25;;;;;;;6.10;3.60;;;;;;;;;;5018841;28;20572;-72
2023/12/21 11:58:06;;;;;;;4.03;3.50;;;;;;;;;;5012524;28;20434;-71
2023/12/21 12:00:33;;;;;;;4.85;3.58;;;;;;;;;;5022268;28;20413;-72
2023/12/21 12:03:01;;;;;;;7.00;3.85;;;;;;;;;;5015473;28;20436;-72
2023/12/21 12:05:29;;;;;;;4.32;3.85;;;;;;;;;;5018788;28;20431;-72
2023/12/21 12:07:58;;;;;;;5.30;3.63;;;;;;;;;;5018601;28;20951;-72
2023/12/21 12:10:25;;;;;;;5.00;3.20;;;;;;;;;;5011266;28;20542;-71
2023/12/21 12:12:52;;;;;;;5.03;3.58;;;;;;;;;;5015266;28;20420;-71
2023/12/21 12:15:20;;;;;;;6.18;3.38;;;;;;;;;;5014571;28;20420;-71
2023/12/21 12:17:47;;;;;;;5.22;3.15;;;;;;;;;;5026139;28;20545;-71
2023/12/21 12:20:15;;;;;;;3.38;3.03;;;;;;;;;;5006598;28;20848;-71
2023/12/21 12:22:42;;;;;;;4.85;3.45;;;;;;;;;;5012976;28;20950;-71
2023/12/21 12:25:12;;;;;;;5.47;3.30;;;;;;;;;;5011482;28;20562;-71
2023/12/21 12:27:39;;;;;;;4.07;2.88;;;;;;;;;;5017856;28;20482;-71
2023/12/21 12:30:07;;;;;;;4.03;2.60;;;;;;;;;;5009638;28;20916;-74
2023/12/21 12:32:34;;;;;;;4.57;2.50;;;;;;;;;;5024131;28;20592;-71
2023/12/21 12:35:02;;;;;;;3.88;2.40;;;;;;;;;;5013807;28;20419;-72
2023/12/21 12:37:29;;;;;;;3.58;2.50;;;;;;;;;;4992057;28;20520;-71
2023/12/21 12:39:57;;;;;;;3.45;2.20;;;;;;;;;;5012713;28;20445;-71
2023/12/21 12:42:27;;;;;;;3.75;2.13;;;;;;;;;;5011204;28;20421;-71
2023/12/21 12:44:54;;;;;;;2.67;1.70;;;;;;;;;;5014397;28;20814;-71
2023/12/21 12:47:21;;;;;;;2.78;1.90;;;;;;;;;;5006697;28;20436;-71
2023/12/21 12:49:48;;;;;;;2.85;1.90;;;;;;;;;;5020244;28;20426;-71
2023/12/21 12:52:17;;;;;;;3.00;2.22;;;;;;;;;;5015275;28;20440;-71
2023/12/21 12:54:44;;;;;;;3.95;2.50;;;;;;;;;;5011655;28;20420;-71
2023/12/21 12:57:12;;;;;;;3.85;2.53;;;;;;;;;;5023177;28;20433;-71
2023/12/21 12:59:40;;;;;;;2.53;2.20;;;;;;;;;;5010956;28;20863;-71
2023/12/21 13:02:07;;;;;;;3.17;2.28;;;;;;;;;;5005359;28;20437;-71
2023/12/21 13:04:34;;;;;;;2.30;2.00;;;;;;;;;;5018866;28;20889;-71
2023/12/21 13:07:01;;;;;;;2.92;2.22;;;;;;;;;;5008921;28;20926;-71
2023/12/21 13:09:30;;;;;;;3.97;2.22;;;;;;;;;;5012693;28;20768;-70
2023/12/21 13:11:59;;;;;;;2.93;1.90;;;;;;;;;;5009030;28;20444;-70
2023/12/21 13:14:26;;;;;;;2.08;1.75;;;;;;;;;;5020891;28;20441;-70
2023/12/21 13:16:55;;;;;;;4.50;1.60;;;;;;;;;;5017559;28;20939;-70
2023/12/21 13:19:23;;;;;;;2.80;1.50;;;;;;;;;;5008983;28;20479;-71
2023/12/21 13:21:50;;;;;;;2.88;1.40;;;;;;;;;;5022842;28;20446;-70
2023/12/21 13:24:19;;;;;;;3.20;1.23;;;;;;;;;;5016047;28;20487;-70
2023/12/21 13:26:47;;;;;;;3.05;1.20;;;;;;;;;;5021942;28;20479;-70
2023/12/21 13:29:14;;;;;;;1.92;1.23;;;;;;;;;;5009844;28;20452;-70
2023/12/21 13:31:41;;;;;;;2.40;1.40;;;;;;;;;;5017309;28;20452;-70
2023/12/21 13:34:09;;;;;;;2.10;1.23;;;;;;;;;;5020514;28;20454;-70
2023/12/21 13:36:36;;;;;;;1.70;1.40;;;;;;;;;;5012871;28;20930;-70
2023/12/21 13:39:04;;;;;;;2.20;1.35;;;;;;;;;;5019422;28;20413;-70
2023/12/21 13:41:32;;;;;;;2.90;1.40;;;;;;;;;;5016164;28;20422;-70
2023/12/21 13:43:59;;;;;;;2.72;1.50;;;;;;;;;;5021217;28;20898;-70
2023/12/21 13:46:27;;;;;;;2.50;1.60;;;;;;;;;;5008517;28;20439;-70
2023/12/21 13:48:55;;;;;;;2.33;1.70;;;;;;;;;;5020689;28;20868;-70
2023/12/21 13:51:23;;;;;;;2.40;1.33;;;;;;;;;;5017319;28;20417;-70
2023/12/21 13:53:51;;;;;;;2.63;1.50;;;;;;;;;;5029546;28;20423;-70
2023/12/21 13:56:19;;;;;;;3.00;1.60;;;;;;;;;;5019228;28;20423;-70
2023/12/21 13:58:46;;;;;;;2.83;1.70;;;;;;;;;;5027823;28;20420;-71
2023/12/21 14:01:13;;;;;;;3.20;1.60;;;;;;;;;;5031167;28;20443;-73
2023/12/21 14:03:40;;;;;;;4.03;1.70;;;;;;;;;;5029315;28;20423;-70
2023/12/21 14:06:07;;;;;;;1.90;1.40;;;;;;;;;;5036773;28;20502;-70
2023/12/21 14:08:36;;;;;;;2.05;1.35;;;;;;;;;;5023692;28;20829;-70
2023/12/21 14:11:03;;;;;;;1.80;1.13;;;;;;;;;;5037922;28;20453;-70
2023/12/21 14:13:30;;;;;;;1.92;1.33;;;;;;;;;;5028973;28;20762;-70
2023/12/21 14:15:57;;;;;;;2.40;1.27;;;;;;;;;;5021598;28;20441;-71
2023/12/21 14:18:24;;;;;;;1.85;1.05;;;;;;;;;;5030600;28;20446;-71
2023/12/21 14:20:51;;;;;;;3.40;1.30;;;;;;;;;;5029451;28;20428;-70
2023/12/21 14:23:19;;;;;;;2.35;1.10;;;;;;;;;;5027786;28;20439;-71
2023/12/21 14:25:47;;;;;;;4.53;1.50;;;;;;;;;;5022192;28;20432;-70
2023/12/21 14:28:14;;;;;;;4.05;1.85;;;;;;;;;;5032111;28;20427;-70
2023/12/21 14:30:42;;;;;;;4.60;1.60;;;;;;;;;;5019252;28;20580;-70
2023/12/21 14:33:09;;;;;;;2.90;1.40;;;;;;;;;;5024088;28;20415;-70
2023/12/21 14:35:36;;;;;;;2.77;1.50;;;;;;;;;;5017627;28;20516;-70
2023/12/21 14:38:04;;;;;;;2.92;1.40;;;;;;;;;;5021277;28;20446;-69
2023/12/21 14:40:31;;;;;;;2.40;1.35;;;;;;;;;;5005034;28;20465;-69
2023/12/21 14:42:59;;;;;;;2.53;1.73;;;;;;;;;;5017166;28;20510;-70
2023/12/21 14:45:27;;;;;;;3.65;1.55;;;;;;;;;;5013722;28;20441;-69